This is the latest recevied weather packets stored in our database for station/object VA3JLF-1. If no packets are shown the sender has not sent any weather packets the latest 10 day(s).
| Time | Temp. | Humidity | Pressure | Rain* | Wind** | Luminosity | Snow |
|---|---|---|---|---|---|---|---|
| 1777812959 | 8.33° C | 57% | 1010 hPa | 0 mm | - | - | - |
| 1777812358 | 7.78° C | 58% | 1010 hPa | 0 mm | - | - | - |
| 1777811758 | 7.78° C | 62% | 1010.1 hPa | 0 mm | - | - | - |
| 1777811159 | 6.67° C | 70% | 1010.1 hPa | 0 mm | - | - | - |
| 1777810558 | 6.11° C | 73% | 1010.1 hPa | 0 mm | - | - | - |
| 1777809958 | 5.56° C | 74% | 1009.9 hPa | 0 mm | - | - | - |
| 1777809358 | 5° C | 72% | 1010.3 hPa | 0 mm | - | - | - |
| 1777808758 | 4.44° C | 74% | 1010.1 hPa | 0 mm | - | - | - |
| 1777808157 | 3.33° C | 83% | 1010 hPa | 0 mm | - | - | - |
| 1777807557 | 2.78° C | 87% | 1009.9 hPa | 0 mm | - | - | - |
| 1777806957 | 1.67° C | 89% | 1010 hPa | 0 mm | - | - | - |
| 1777806357 | 0.56° C | 91% | 1009.9 hPa | 0 mm | - | - | - |
| 1777805757 | 0° C | 91% | 1009.8 hPa | 0 mm | - | - | - |
| 1777805158 | 0° C | 91% | 1009.7 hPa | 0 mm | - | - | - |
| 1777804558 | 0° C | 91% | 1009.6 hPa | 0 mm | - | - | - |
| 1777803957 | -0.56° C | 91% | 1009.5 hPa | 0 mm | - | - | - |
| 1777803357 | -0.56° C | 90% | 1009.7 hPa | 0 mm | - | - | - |
| 1777802758 | -0.56° C | 90% | 1009.7 hPa | 0 mm | - | - | - |
| 1777802158 | -0.56° C | 89% | 1009.5 hPa | 0 mm | - | - | - |
| 1777801557 | -0.56° C | 89% | 1009.5 hPa | 0 mm | - | - | - |
| 1777800957 | 0° C | 87% | 1009.6 hPa | 0 mm | - | - | - |
| 1777800357 | 0° C | 88% | 1009.6 hPa | 0 mm | - | - | - |
| 1777799757 | 0° C | 87% | 1009.6 hPa | 0 mm | - | - | - |
| 1777799158 | 0.56° C | 86% | 1009.7 hPa | 0 mm | - | - | - |
| 1777798558 | 0.56° C | 86% | 1009.7 hPa | 0 mm | - | - | - |
* Rain latest hour (hover to see other rain measurements)
** Current wind speed in m/s (hover to see current wind gust speed)